Terminal Aerodrome Forecast
Issued by NWS

Home | Current Version | Previous Version | Text Only | Print | Product List | Glossary On
Versions: 1 2 3 4 5 6 7 8 9 10 11 12 13 14
089
FTUS42 KTBW 250528
TAFPIE
TAF
KPIE 250528Z 2506/2606 26015G20KT P6SM SCT025 BKN040
     FM251300 27016G22KT P6SM BKN040 BKN100
     FM252100 29012G17KT P6SM FEW250
     FM260100 29008KT P6SM FEW250=

USA.gov is the U.S. government's official web portal to all federal, state and local government web resources and services.